»·PEaware :: N494SP KBFL-KMHV

N494SP :: KBFL-KMHV

FLIGHT INFORMATION

Flight Status: Arrived
Operator: Privately registered:
United States
More flights under this callsign
Pilot: Arik L. (33213)
Aircraft: CESSNA 172 SKYHAWK
(C172)
More flights by this aircraft type
Origin: KBFL Meadows
United States
Destination: KMHV Mojave
United States
More flights between these airports :: More routes between these airports
Route: L45 351239N1184958W 350627N1183418W L94
File this flight plan on PilotEdge
Remarks:
Altitude:
(Current/Filed)
7,500ft
Speed:
(Current/Filed)
120kts
Departed: 15-Jan-21 04:43 PM
Arrived: 15-Jan-21 05:19 PM
Distance/Time
Traveled:
6799nm/0:36
Distance/Time
To Go:
Arrived

Flight Plot

Page will automatically refresh every two minutes.

Flight plan parsing failed; only flown route is shown


Map Options




Map Legend


Flown Route
Filed Route
Departure Airport
Arrival Airport
Navaid (VOR, NDB)
Fix

Horizontal Profiles

Position Reports

Time Latitude Longitude Heading Altitude Ground
Speed
15-Jan-21 16:26 35.429071 -119.046404 134 481ft 0kts
15-Jan-21 16:27 35.429071 -119.046404 134 481ft 0kts
15-Jan-21 16:28 35.429071 -119.046404 134 481ft 0kts
15-Jan-21 16:29 35.429071 -119.046404 134 481ft 0kts
15-Jan-21 16:30 35.429071 -119.046404 134 481ft 0kts
15-Jan-21 16:31 35.429071 -119.046404 134 481ft 0kts
15-Jan-21 16:32 35.429071 -119.046404 134 481ft 0kts
15-Jan-21 16:33 35.429071 -119.046404 134 481ft 0kts
15-Jan-21 16:34 35.429071 -119.046404 134 481ft 0kts
15-Jan-21 16:35 35.428049 -119.045834 194 479ft 10kts
15-Jan-21 16:36 35.426458 -119.044988 137 473ft 17kts
15-Jan-21 16:37 35.425760 -119.044451 256 471ft 0kts
15-Jan-21 16:38 35.425760 -119.044451 256 471ft 0kts
15-Jan-21 16:39 35.425760 -119.044451 256 471ft 0kts
15-Jan-21 16:40 35.425760 -119.044451 256 471ft 0kts
15-Jan-21 16:41 35.425560 -119.045838 276 474ft 13kts
15-Jan-21 16:42 35.437418 -119.059569 313 903ft 81kts
15-Jan-21 16:43 35.451121 -119.061945 126 1721ft 86kts
15-Jan-21 16:44 35.430097 -119.056634 136 2473ft 84kts
15-Jan-21 16:45 35.427824 -119.028654 101 3170ft 88kts
15-Jan-21 16:46 35.408142 -119.028059 180 3893ft 83kts
15-Jan-21 16:47 35.386140 -119.017422 154 4611ft 78kts
15-Jan-21 16:48 35.363468 -119.000760 150 4901ft 113kts
15-Jan-21 16:49 35.334168 -118.980291 151 5002ft 127kts
15-Jan-21 16:50 35.305219 -118.960006 148 5423ft 113kts
15-Jan-21 16:51 35.281418 -118.938540 135 6018ft 101kts
15-Jan-21 16:52 35.262940 -118.914265 133 6615ft 94kts
15-Jan-21 16:53 35.241460 -118.885642 133 6666ft 122kts
15-Jan-21 16:54 35.219305 -118.856156 133 7063ft 104kts
15-Jan-21 16:55 35.200857 -118.831408 132 7478ft 105kts
15-Jan-21 16:56 35.186563 -118.796305 112 7499ft 122kts
15-Jan-21 16:57 35.173824 -118.757690 112 7500ft 122kts
15-Jan-21 16:58 35.161149 -118.719004 112 7500ft 123kts
15-Jan-21 16:59 35.148473 -118.680315 112 7499ft 123kts
15-Jan-21 17:00 35.135772 -118.641568 112 7498ft 122kts
15-Jan-21 17:01 35.123218 -118.603160 112 7500ft 121kts
15-Jan-21 17:02 35.110627 -118.564648 112 7501ft 122kts
15-Jan-21 17:03 35.102702 -118.523006 94 7229ft 135kts
15-Jan-21 17:04 35.101707 -118.476342 89 6723ft 139kts
15-Jan-21 17:05 35.102228 -118.429249 89 6216ft 134kts
15-Jan-21 17:06 35.097301 -118.386213 102 5813ft 121kts
15-Jan-21 17:07 35.090386 -118.348728 102 6247ft 108kts
15-Jan-21 17:08 35.084014 -118.314334 103 6839ft 93kts
15-Jan-21 17:09 35.084920 -118.285413 48 6900ft 88kts
15-Jan-21 17:10 35.105049 -118.267986 24 6898ft 88kts
15-Jan-21 17:11 35.121625 -118.274501 239 6860ft 88kts
15-Jan-21 17:12 35.105218 -118.263395 98 6803ft 95kts
15-Jan-21 17:13 35.091938 -118.237367 126 6157ft 115kts
15-Jan-21 17:14 35.074258 -118.202245 113 4446ft 120kts
15-Jan-21 17:15 35.068757 -118.168202 82 3499ft 92kts
15-Jan-21 17:16 35.071762 -118.134436 87 3111ft 85kts
15-Jan-21 17:17 35.059130 -118.137515 270 2872ft 67kts
15-Jan-21 17:18 35.059204 -118.153650 271 2756ft 30kts
15-Jan-21 17:19 35.058172 -118.157725 190 2765ft 0kts
15-Jan-21 17:20 35.056965 -118.156097 180 2764ft 2kts
15-Jan-21 17:21 0.000408 0.013975 0 3ft 0kts
15-Jan-21 17:22 0.000408 0.013975 0 3ft 0kts
15-Jan-21 17:23 0.000408 0.013975 0 3ft 0kts
15-Jan-21 17:24 0.000408 0.013975 0 3ft 0kts
15-Jan-21 17:25 0.000408 0.013975 0 3ft 0kts
15-Jan-21 17:26 0.000408 0.013975 0 3ft 0kts

Navigation Log

Ident Type
Flight plan parsing failed, navigation log unavailable